Time;durP1;ratioP1;P1;durP2;ratioP2;P2;SDS_P1;SDS_P2;PMS_P1;PMS_P2;Temp;Humidity;BMP_temperature;BMP_pressure;BME280_temperature;BME280_humidity;BME280_pressure;Samples;Min_cycle;Max_cycle;Signal;HPM_P1;HPM_P2
2023/10/15 00:00:00;;;;;;;16.52;8.88;;;;;;;;;;2089595;28;20044;-76
2023/10/15 00:01:21;;;;;;;16.35;9.40;;;;;;;;;;2074356;28;20111;-77
2023/10/15 00:02:43;;;;;;;11.45;7.95;;;;;;;;;;2071468;28;20033;-76
2023/10/15 00:04:04;;;;;;;11.43;7.63;;;;;;;;;;2072266;28;20037;-76
2023/10/15 00:05:25;;;;;;;17.55;9.02;;;;;;;;;;2062808;28;20027;-76
2023/10/15 00:06:46;;;;;;;13.88;7.90;;;;;;;;;;2070468;28;20644;-76
2023/10/15 00:08:07;;;;;;;12.07;8.15;;;;;;;;;;2071450;28;20087;-76
2023/10/15 00:09:30;;;;;;;18.63;8.20;;;;;;;;;;2071896;28;20481;-75
2023/10/15 00:10:51;;;;;;;12.77;8.93;;;;;;;;;;2069685;28;20165;-76
2023/10/15 00:12:12;;;;;;;10.00;7.18;;;;;;;;;;2069431;28;20541;-76
2023/10/15 00:13:33;;;;;;;8.23;6.97;;;;;;;;;;2072155;28;20029;-75
2023/10/15 00:14:54;;;;;;;14.93;9.30;;;;;;;;;;2070276;28;20029;-76
2023/10/15 00:16:19;;;;;;;13.07;8.20;;;;;;;;;;2074055;28;20572;-76
2023/10/15 00:17:40;;;;;;;11.65;8.27;;;;;;;;;;2069392;28;20039;-76
2023/10/15 00:19:10;;;;;;;13.18;8.48;;;;;;;;;;2068647;28;20580;-76
2023/10/15 00:20:31;;;;;;;15.65;8.85;;;;;;;;;;2076134;28;20045;-75
2023/10/15 00:21:53;;;;;;;11.50;8.80;;;;;;;;;;2070737;28;20121;-75
2023/10/15 00:23:14;;;;;;;9.73;7.68;;;;;;;;;;2076637;28;20485;-76
2023/10/15 00:24:37;;;;;;;10.65;8.10;;;;;;;;;;2078163;28;20049;-76
2023/10/15 00:25:59;;;;;;;15.32;7.82;;;;;;;;;;2076007;28;20030;-76
2023/10/15 00:27:20;;;;;;;14.77;8.40;;;;;;;;;;2072846;28;20089;-76
2023/10/15 00:28:44;;;;;;;11.30;8.27;;;;;;;;;;2074901;28;20025;-76
2023/10/15 00:30:12;;;;;;;11.80;8.38;;;;;;;;;;2073431;28;20398;-75
2023/10/15 00:31:34;;;;;;;11.00;8.07;;;;;;;;;;2079876;28;20041;-75
2023/10/15 00:32:56;;;;;;;10.88;7.55;;;;;;;;;;2077709;28;20030;-76
2023/10/15 00:34:17;;;;;;;13.70;7.82;;;;;;;;;;2072415;28;20037;-76
2023/10/15 00:35:40;;;;;;;13.52;8.00;;;;;;;;;;2085155;28;20403;-76
2023/10/15 00:37:01;;;;;;;12.63;7.03;;;;;;;;;;2074930;28;20045;-75
2023/10/15 00:38:24;;;;;;;13.88;7.65;;;;;;;;;;2065781;28;20508;-76
2023/10/15 00:39:46;;;;;;;13.38;8.55;;;;;;;;;;2069367;28;20068;-76
2023/10/15 00:41:08;;;;;;;15.13;7.55;;;;;;;;;;2073888;28;20045;-76
2023/10/15 00:42:30;;;;;;;15.88;8.73;;;;;;;;;;2076370;28;20022;-75
2023/10/15 00:43:52;;;;;;;10.68;7.22;;;;;;;;;;2074845;28;20473;-79
2023/10/15 00:45:14;;;;;;;14.88;8.70;;;;;;;;;;2068924;28;20116;-80
2023/10/15 00:46:37;;;;;;;10.00;7.55;;;;;;;;;;2080214;28;20128;-81
2023/10/15 00:48:07;;;;;;;11.35;7.90;;;;;;;;;;2076935;28;20430;-80
2023/10/15 00:49:29;;;;;;;13.57;7.85;;;;;;;;;;2074622;28;20034;-80
2023/10/15 00:50:51;;;;;;;10.90;6.95;;;;;;;;;;2072296;28;20037;-79
2023/10/15 00:52:12;;;;;;;17.30;8.40;;;;;;;;;;2073463;28;20061;-80
2023/10/15 00:53:33;;;;;;;10.18;7.55;;;;;;;;;;2068663;28;20500;-80
2023/10/15 00:54:54;;;;;;;10.98;8.27;;;;;;;;;;2080153;28;20023;-80
2023/10/15 00:56:18;;;;;;;9.50;7.72;;;;;;;;;;2071876;28;20030;-79
2023/10/15 00:57:42;;;;;;;14.35;8.00;;;;;;;;;;2065489;28;20065;-79
2023/10/15 00:59:08;;;;;;;15.55;8.00;;;;;;;;;;2076030;28;20520;-81
2023/10/15 01:02:30;;;;;;;10.55;7.00;;;;;;;;;;2071156;28;20119;-80
2023/10/15 01:03:54;;;;;;;11.18;7.80;;;;;;;;;;2067264;28;20038;-80
2023/10/15 01:05:16;;;;;;;15.13;8.13;;;;;;;;;;2066409;28;20034;-79
2023/10/15 01:06:39;;;;;;;11.75;8.32;;;;;;;;;;2064548;28;20081;-80
2023/10/15 01:08:03;;;;;;;9.80;6.97;;;;;;;;;;2086436;28;20044;-79
2023/10/15 01:09:30;;;;;;;11.25;8.23;;;;;;;;;;2077226;28;20095;-79
2023/10/15 01:11:08;;;;;;;15.13;8.60;;;;;;;;;;2079404;28;20045;-79
2023/10/15 01:12:32;;;;;;;10.73;7.40;;;;;;;;;;2083375;28;20041;-79
2023/10/15 01:13:54;;;;;;;15.52;8.93;;;;;;;;;;2076785;28;20029;-79
2023/10/15 01:15:15;;;;;;;12.00;8.93;;;;;;;;;;2083871;28;20083;-78
2023/10/15 01:16:36;;;;;;;11.23;7.07;;;;;;;;;;2083495;28;20037;-79
2023/10/15 01:18:06;;;;;;;15.40;8.25;;;;;;;;;;2084380;28;20040;-79
2023/10/15 01:19:31;;;;;;;14.38;8.23;;;;;;;;;;2083801;28;20056;-78
2023/10/15 01:20:52;;;;;;;13.88;8.93;;;;;;;;;;2083579;28;20041;-77
2023/10/15 01:22:17;;;;;;;10.95;8.27;;;;;;;;;;2082147;28;20044;-78
2023/10/15 01:23:45;;;;;;;12.75;8.07;;;;;;;;;;2094392;28;20166;-78
2023/10/15 01:25:24;;;;;;;15.60;8.75;;;;;;;;;;2086074;28;20083;-79
2023/10/15 01:28:38;;;;;;;12.98;9.35;;;;;;;;;;2084508;28;20037;-78
2023/10/15 01:29:59;;;;;;;14.70;8.52;;;;;;;;;;2081920;28;20037;-78
2023/10/15 01:31:24;;;;;;;14.27;8.80;;;;;;;;;;2091255;28;20508;-78
2023/10/15 01:32:45;;;;;;;16.73;8.85;;;;;;;;;;2086143;28;20025;-80
2023/10/15 01:34:09;;;;;;;11.82;7.70;;;;;;;;;;2091473;28;20107;-78
2023/10/15 01:35:30;;;;;;;10.88;7.50;;;;;;;;;;2084425;28;20041;-79
2023/10/15 01:36:51;;;;;;;11.52;7.43;;;;;;;;;;2092881;28;20025;-79
2023/10/15 01:38:21;;;;;;;10.95;7.65;;;;;;;;;;2092526;28;20512;-78
2023/10/15 01:39:47;;;;;;;13.82;8.13;;;;;;;;;;2084590;28;20037;-79
2023/10/15 01:41:13;;;;;;;13.32;9.07;;;;;;;;;;2080702;28;20044;-78
2023/10/15 01:42:40;;;;;;;12.20;8.15;;;;;;;;;;2085722;28;20033;-76
2023/10/15 01:44:01;;;;;;;12.25;8.73;;;;;;;;;;2083743;28;20110;-77
2023/10/15 01:45:31;;;;;;;11.70;8.50;;;;;;;;;;2075818;28;20026;-78
2023/10/15 01:47:08;;;;;;;13.10;8.30;;;;;;;;;;2087757;28;20479;-78
2023/10/15 01:48:31;;;;;;;18.15;8.82;;;;;;;;;;2082169;28;20033;-78
2023/10/15 01:49:56;;;;;;;15.25;8.45;;;;;;;;;;2079649;28;20033;-78
2023/10/15 01:51:17;;;;;;;17.20;8.77;;;;;;;;;;2082159;28;20417;-78
2023/10/15 01:52:44;;;;;;;12.85;8.18;;;;;;;;;;2081263;28;20060;-78
2023/10/15 01:54:16;;;;;;;13.80;8.52;;;;;;;;;;2081692;28;20037;-77
2023/10/15 01:55:37;;;;;;;14.82;7.82;;;;;;;;;;2081796;28;20037;-77
2023/10/15 01:56:59;;;;;;;13.15;8.35;;;;;;;;;;2089961;28;20527;-77
2023/10/15 01:58:24;;;;;;;12.82;8.35;;;;;;;;;;2085337;28;20049;-77
2023/10/15 01:59:48;;;;;;;11.55;8.73;;;;;;;;;;2081150;28;20025;-77
2023/10/15 02:01:31;;;;;;;14.80;8.43;;;;;;;;;;2081932;28;20049;-77
2023/10/15 02:02:53;;;;;;;17.90;8.15;;;;;;;;;;2081125;28;20033;-77
2023/10/15 02:05:45;;;;;;;11.93;8.43;;;;;;;;;;2080613;28;20033;-77
2023/10/15 02:07:06;;;;;;;;;;;;;;;;;;2074582;28;20033;-77
2023/10/15 02:08:27;;;;;;;11.77;7.80;;;;;;;;;;2072805;28;20281;-77
2023/10/15 02:09:49;;;;;;;12.10;8.60;;;;;;;;;;2085375;28;20024;-77
2023/10/15 02:11:11;;;;;;;;;;;;;;;;;;2082670;28;20041;-77
2023/10/15 02:12:32;;;;;;;14.65;8.88;;;;;;;;;;2080923;28;19905;-77
2023/10/15 02:13:55;;;;;;;10.07;7.25;;;;;;;;;;2082228;28;20068;-77
2023/10/15 02:15:22;;;;;;;14.65;9.13;;;;;;;;;;2087133;28;20033;-77
2023/10/15 02:16:49;;;;;;;14.65;8.75;;;;;;;;;;2083038;28;20084;-76
2023/10/15 02:18:19;;;;;;;14.65;7.95;;;;;;;;;;2083526;28;20033;-77
2023/10/15 02:19:40;;;;;;;16.85;8.77;;;;;;;;;;2079671;28;20037;-77
2023/10/15 02:21:01;;;;;;;11.63;8.30;;;;;;;;;;2090729;28;20094;-77
2023/10/15 02:22:22;;;;;;;15.10;8.07;;;;;;;;;;2082562;28;20026;-77
2023/10/15 02:23:51;;;;;;;11.57;7.47;;;;;;;;;;2077122;28;20029;-77
2023/10/15 02:25:12;;;;;;;11.65;8.77;;;;;;;;;;2074161;28;20038;-77
2023/10/15 02:26:32;;;;;;;14.27;8.70;;;;;;;;;;2074921;28;20076;-77
2023/10/15 02:27:53;;;;;;;9.85;7.43;;;;;;;;;;2074326;28;20044;-77
2023/10/15 02:31:29;;;;;;;10.15;8.27;;;;;;;;;;2074191;28;20037;-76
2023/10/15 02:32:43;;;;;;;12.00;8.27;;;;;;;;;;2073682;28;20037;-76
2023/10/15 02:34:04;;;;;;;11.27;7.65;;;;;;;;;;2074969;28;20504;-76
2023/10/15 02:35:31;;;;;;;15.32;9.20;;;;;;;;;;2075744;28;20034;-77
2023/10/15 02:36:51;;;;;;;18.13;8.38;;;;;;;;;;2079907;28;20068;-77
2023/10/15 02:38:13;;;;;;;10.48;8.00;;;;;;;;;;2076224;28;20160;-76
2023/10/15 02:39:38;;;;;;;19.75;9.07;;;;;;;;;;2069832;28;20029;-76
2023/10/15 02:41:06;;;;;;;11.93;8.63;;;;;;;;;;2074024;28;20368;-76
2023/10/15 02:42:36;;;;;;;15.82;8.55;;;;;;;;;;2064090;28;20038;-77
2023/10/15 02:43:57;;;;;;;10.00;8.50;;;;;;;;;;2074264;28;20087;-77
2023/10/15 02:45:23;;;;;;;14.05;9.15;;;;;;;;;;2073782;28;20077;-77
2023/10/15 02:46:47;;;;;;;15.48;8.30;;;;;;;;;;2073199;28;20022;-77
2023/10/15 02:48:11;;;;;;;17.35;8.70;;;;;;;;;;2071845;28;20442;-74
2023/10/15 02:49:48;;;;;;;19.88;8.25;;;;;;;;;;2067765;28;20382;-74
2023/10/15 02:51:09;;;;;;;12.15;8.25;;;;;;;;;;2070832;28;20108;-73
2023/10/15 02:52:43;;;;;;;11.73;8.73;;;;;;;;;;2075317;28;20026;-73
2023/10/15 02:54:24;;;;;;;10.98;7.88;;;;;;;;;;2069590;28;20049;-73
2023/10/15 02:55:47;;;;;;;7.80;6.97;;;;;;;;;;2083836;28;20117;-73
2023/10/15 02:57:15;;;;;;;13.20;7.45;;;;;;;;;;2079635;28;20492;-73
2023/10/15 02:58:36;;;;;;;8.60;7.47;;;;;;;;;;2074607;28;20042;-72
2023/10/15 02:59:57;;;;;;;9.15;6.95;;;;;;;;;;2072124;28;20096;-73
2023/10/15 03:01:20;;;;;;;12.35;7.93;;;;;;;;;;2072810;28;20049;-73
2023/10/15 03:02:44;;;;;;;14.85;7.10;;;;;;;;;;2073250;28;20076;-72
2023/10/15 03:04:09;;;;;;;8.13;6.68;;;;;;;;;;2067081;28;20026;-71
2023/10/15 03:05:38;;;;;;;11.68;7.72;;;;;;;;;;2070501;28;20103;-72
2023/10/15 03:07:17;;;;;;;12.10;7.10;;;;;;;;;;2073161;28;20095;-71
2023/10/15 03:08:38;;;;;;;7.68;6.45;;;;;;;;;;2077094;28;20044;-71
2023/10/15 03:09:59;;;;;;;11.55;6.88;;;;;;;;;;2075376;28;20037;-71
2023/10/15 03:11:20;;;;;;;9.65;8.15;;;;;;;;;;2071170;28;20038;-71
2023/10/15 03:12:44;;;;;;;11.27;7.70;;;;;;;;;;2074747;28;20022;-71
2023/10/15 03:14:06;;;;;;;7.95;7.15;;;;;;;;;;2073194;28;20035;-72
2023/10/15 03:15:27;;;;;;;11.88;7.10;;;;;;;;;;2070426;28;20034;-72
2023/10/15 03:16:48;;;;;;;12.43;7.70;;;;;;;;;;2071492;28;20388;-72
2023/10/15 03:18:14;;;;;;;8.30;6.80;;;;;;;;;;2071447;28;20101;-71
2023/10/15 03:19:35;;;;;;;8.95;7.32;;;;;;;;;;2073483;28;20034;-71
2023/10/15 03:21:15;;;;;;;12.68;7.97;;;;;;;;;;2079088;28;20049;-74
2023/10/15 03:22:38;;;;;;;10.43;6.97;;;;;;;;;;2067989;28;20544;-72
2023/10/15 03:23:58;;;;;;;9.35;7.57;;;;;;;;;;2074146;28;20042;-72
2023/10/15 03:25:20;;;;;;;9.85;7.40;;;;;;;;;;2072834;28;20038;-73
2023/10/15 03:26:47;;;;;;;13.02;8.20;;;;;;;;;;2078374;28;20041;-72
2023/10/15 03:28:11;;;;;;;9.30;7.25;;;;;;;;;;2076438;28;20948;-72
2023/10/15 03:29:32;;;;;;;11.65;7.38;;;;;;;;;;2076571;28;20034;-72
2023/10/15 03:30:55;;;;;;;10.27;7.20;;;;;;;;;;2072782;28;20107;-72
2023/10/15 03:32:16;;;;;;;9.57;7.78;;;;;;;;;;2073024;28;20517;-72
2023/10/15 03:33:37;;;;;;;12.20;7.97;;;;;;;;;;2075847;28;20025;-72
2023/10/15 03:38:23;;;;;;;8.73;7.35;;;;;;;;;;2076494;28;20087;-73
2023/10/15 03:39:54;;;;;;;9.27;7.35;;;;;;;;;;2071579;28;20509;-72
2023/10/15 03:41:40;;;;;;;11.73;7.43;;;;;;;;;;2071805;28;20053;-73
2023/10/15 03:43:01;;;;;;;9.73;7.65;;;;;;;;;;2075403;28;20091;-72
2023/10/15 03:44:27;;;;;;;8.77;7.57;;;;;;;;;;2073511;28;20026;-73
2023/10/15 03:45:51;;;;;;;7.75;6.95;;;;;;;;;;2071815;28;20034;-72
2023/10/15 03:47:13;;;;;;;9.52;7.03;;;;;;;;;;2063824;28;20502;-73
2023/10/15 03:48:41;;;;;;;7.90;6.80;;;;;;;;;;2065328;28;20530;-72
2023/10/15 03:50:09;;;;;;;11.00;7.40;;;;;;;;;;2077682;28;20093;-72
2023/10/15 03:51:30;;;;;;;9.57;7.78;;;;;;;;;;2073921;28;20049;-72
2023/10/15 03:52:51;;;;;;;8.90;7.55;;;;;;;;;;2064702;28;20485;-72
2023/10/15 03:54:13;;;;;;;9.85;7.00;;;;;;;;;;2072357;28;20448;-71
2023/10/15 03:55:34;;;;;;;9.52;7.00;;;;;;;;;;2072059;28;20038;-71
2023/10/15 03:56:56;;;;;;;8.82;7.53;;;;;;;;;;2065179;28;20063;-72
2023/10/15 03:58:18;;;;;;;;;;;;;;;;;;2068664;28;20037;-72
2023/10/15 03:59:44;;;;;;;7.35;6.32;;;;;;;;;;2071921;28;19909;-72
2023/10/15 04:01:16;;;;;;;11.40;6.72;;;;;;;;;;2070135;28;20034;-72
2023/10/15 04:02:54;;;;;;;10.82;6.35;;;;;;;;;;2071711;28;20041;-72
2023/10/15 04:04:16;;;;;;;7.07;6.10;;;;;;;;;;2072624;28;20034;-71
2023/10/15 04:05:37;;;;;;;11.07;6.88;;;;;;;;;;2079152;28;20044;-72
2023/10/15 04:07:19;;;;;;;7.63;6.85;;;;;;;;;;2074137;28;20034;-72
2023/10/15 04:08:39;;;;;;;7.45;6.72;;;;;;;;;;2073241;28;20115;-72
2023/10/15 04:10:04;;;;;;;7.07;6.38;;;;;;;;;;2070156;28;20026;-71
2023/10/15 04:11:29;;;;;;;8.15;6.00;;;;;;;;;;2081086;28;20038;-71
2023/10/15 04:12:50;;;;;;;8.85;5.90;;;;;;;;;;2074212;28;20030;-71
2023/10/15 04:14:26;;;;;;;11.02;6.28;;;;;;;;;;2078974;28;20033;-73
2023/10/15 04:15:50;;;;;;;6.65;6.05;;;;;;;;;;2075723;28;20394;-73
2023/10/15 04:17:11;;;;;;;7.03;6.13;;;;;;;;;;2073437;28;20390;-73
2023/10/15 04:18:32;;;;;;;6.70;6.00;;;;;;;;;;2066074;28;20461;-74
2023/10/15 04:19:53;;;;;;;7.05;6.30;;;;;;;;;;2070966;28;20056;-74
2023/10/15 04:21:16;;;;;;;7.97;6.50;;;;;;;;;;2073036;28;20057;-74
2023/10/15 04:22:44;;;;;;;7.38;6.57;;;;;;;;;;2073568;28;20088;-74
2023/10/15 04:24:07;;;;;;;7.20;6.60;;;;;;;;;;2080582;28;20034;-74
2023/10/15 04:25:32;;;;;;;10.80;6.38;;;;;;;;;;2083794;28;20021;-74
2023/10/15 04:26:53;;;;;;;7.70;6.55;;;;;;;;;;2076645;28;20030;-73
2023/10/15 04:28:16;;;;;;;7.85;7.10;;;;;;;;;;2079233;28;20025;-74
2023/10/15 04:29:45;;;;;;;8.90;7.07;;;;;;;;;;2067192;28;20033;-74
2023/10/15 04:31:11;;;;;;;10.15;7.75;;;;;;;;;;2075527;28;20033;-74
2023/10/15 04:32:45;;;;;;;10.65;6.65;;;;;;;;;;2074913;28;20025;-74
2023/10/15 04:34:09;;;;;;;7.38;6.65;;;;;;;;;;2069077;28;20031;-74
2023/10/15 04:35:30;;;;;;;10.80;8.60;;;;;;;;;;2070722;28;20092;-74
2023/10/15 04:36:57;;;;;;;7.53;6.38;;;;;;;;;;2075162;28;20036;-74
2023/10/15 04:38:28;;;;;;;8.20;6.85;;;;;;;;;;2076164;28;20026;-74
2023/10/15 04:39:52;;;;;;;9.15;6.57;;;;;;;;;;2072448;28;20089;-74
2023/10/15 04:41:22;;;;;;;7.35;6.32;;;;;;;;;;2078258;28;20417;-74
2023/10/15 04:42:48;;;;;;;7.90;6.50;;;;;;;;;;2076987;28;20033;-74
2023/10/15 04:44:12;;;;;;;11.32;8.27;;;;;;;;;;2072972;28;20033;-74
2023/10/15 04:47:03;;;;;;;8.02;6.78;;;;;;;;;;2073513;28;20546;-74
2023/10/15 04:48:27;;;;;;;7.75;6.95;;;;;;;;;;2074533;28;20430;-74
2023/10/15 04:49:48;;;;;;;7.78;6.82;;;;;;;;;;2072963;28;20413;-73
2023/10/15 04:51:12;;;;;;;7.65;6.93;;;;;;;;;;2077046;28;20098;-74
2023/10/15 04:52:33;;;;;;;7.53;6.78;;;;;;;;;;2082742;28;20025;-74
2023/10/15 04:53:55;;;;;;;8.20;7.40;;;;;;;;;;2082607;28;20037;-74
2023/10/15 04:55:17;;;;;;;7.65;6.95;;;;;;;;;;2082938;28;20057;-74
2023/10/15 04:56:38;;;;;;;8.73;6.07;;;;;;;;;;2081787;28;20392;-74
2023/10/15 04:57:58;;;;;;;11.35;7.80;;;;;;;;;;2082668;28;20436;-74
2023/10/15 04:59:19;;;;;;;13.25;8.30;;;;;;;;;;2081169;28;20090;-74
2023/10/15 05:00:41;;;;;;;8.90;7.22;;;;;;;;;;2087080;28;20037;-74
2023/10/15 05:02:02;;;;;;;8.18;7.35;;;;;;;;;;2078297;28;20091;-74
2023/10/15 05:03:23;;;;;;;10.27;7.82;;;;;;;;;;2076058;28;20034;-74
2023/10/15 05:04:44;;;;;;;8.07;7.32;;;;;;;;;;2075758;28;20092;-74
2023/10/15 05:06:10;;;;;;;7.32;6.57;;;;;;;;;;2075748;28;20421;-74
2023/10/15 05:07:31;;;;;;;10.88;6.72;;;;;;;;;;2075613;28;20033;-74
2023/10/15 05:08:53;;;;;;;8.70;5.95;;;;;;;;;;2077842;28;20038;-74
2023/10/15 05:10:14;;;;;;;8.88;7.32;;;;;;;;;;2073538;28;20485;-74
2023/10/15 05:11:35;;;;;;;8.50;7.32;;;;;;;;;;2065607;28;20046;-74
2023/10/15 05:12:56;;;;;;;10.50;8.75;;;;;;;;;;2071570;28;20037;-73
2023/10/15 05:14:17;;;;;;;10.33;7.80;;;;;;;;;;2081612;28;20059;-74
2023/10/15 05:15:39;;;;;;;7.88;7.13;;;;;;;;;;2078878;28;20435;-74
2023/10/15 05:17:00;;;;;;;10.90;7.80;;;;;;;;;;2076695;28;20021;-74
2023/10/15 05:18:21;;;;;;;9.23;7.03;;;;;;;;;;2071451;28;20509;-73
2023/10/15 05:19:45;;;;;;;8.38;6.60;;;;;;;;;;2074730;28;20513;-74
2023/10/15 05:21:06;;;;;;;9.43;8.38;;;;;;;;;;2082667;28;20044;-74
2023/10/15 05:22:27;;;;;;;11.98;7.68;;;;;;;;;;2085336;28;20042;-74
2023/10/15 05:23:48;;;;;;;8.48;7.68;;;;;;;;;;2082891;28;20420;-75
2023/10/15 05:25:15;;;;;;;10.75;7.53;;;;;;;;;;2081691;28;20033;-74
2023/10/15 05:26:36;;;;;;;7.60;6.90;;;;;;;;;;2092121;28;20380;-74
2023/10/15 05:27:57;;;;;;;11.32;8.18;;;;;;;;;;2085809;28;20045;-74
2023/10/15 05:29:18;;;;;;;9.77;7.63;;;;;;;;;;2080395;28;20029;-74
2023/10/15 05:30:39;;;;;;;9.02;8.23;;;;;;;;;;2080839;28;20489;-76
2023/10/15 05:32:01;;;;;;;15.43;8.18;;;;;;;;;;2088324;28;20025;-75
2023/10/15 05:33:22;;;;;;;12.32;6.65;;;;;;;;;;2075146;28;20030;-75
2023/10/15 05:34:43;;;;;;;9.55;8.13;;;;;;;;;;2079243;28;20021;-75
2023/10/15 05:36:04;;;;;;;8.90;8.10;;;;;;;;;;2081676;28;20479;-75
2023/10/15 05:37:25;;;;;;;8.52;7.60;;;;;;;;;;2080765;28;20049;-75
2023/10/15 05:38:46;;;;;;;10.20;7.75;;;;;;;;;;2083794;28;20033;-74
2023/10/15 05:40:07;;;;;;;11.98;8.60;;;;;;;;;;2089741;28;20032;-76
2023/10/15 05:41:31;;;;;;;8.15;7.30;;;;;;;;;;2085891;28;20106;-74
2023/10/15 05:42:52;;;;;;;8.60;7.80;;;;;;;;;;2074287;28;20439;-74
2023/10/15 05:44:13;;;;;;;12.93;8.77;;;;;;;;;;2080820;28;20032;-74
2023/10/15 05:45:33;;;;;;;9.63;8.73;;;;;;;;;;2081211;28;20464;-73
2023/10/15 05:46:54;;;;;;;12.48;7.55;;;;;;;;;;2093332;28;20044;-73
2023/10/15 05:48:17;;;;;;;10.32;8.57;;;;;;;;;;2080800;28;20056;-74
2023/10/15 05:49:40;;;;;;;10.70;7.78;;;;;;;;;;2073963;28;20026;-75
2023/10/15 05:51:03;;;;;;;11.18;8.05;;;;;;;;;;2081815;28;20041;-73
2023/10/15 05:52:24;;;;;;;8.70;7.90;;;;;;;;;;2080916;28;20033;-75
2023/10/15 05:53:45;;;;;;;11.95;7.88;;;;;;;;;;2082084;28;20071;-74
2023/10/15 05:55:06;;;;;;;11.77;8.77;;;;;;;;;;2089192;28;20458;-74
2023/10/15 05:56:28;;;;;;;12.50;8.80;;;;;;;;;;2087564;28;20044;-74
2023/10/15 05:57:49;;;;;;;9.27;8.18;;;;;;;;;;2081287;28;20029;-75
2023/10/15 05:59:10;;;;;;;8.85;7.95;;;;;;;;;;2078851;28;20036;-74
2023/10/15 06:00:35;;;;;;;10.27;7.57;;;;;;;;;;2078183;28;20512;-75
2023/10/15 06:01:56;;;;;;;8.85;7.72;;;;;;;;;;2071722;28;20466;-75
2023/10/15 06:03:17;;;;;;;11.35;8.15;;;;;;;;;;2072911;28;20025;-74
2023/10/15 06:04:38;;;;;;;9.13;7.40;;;;;;;;;;2073734;28;20026;-74
2023/10/15 06:05:59;;;;;;;15.27;8.10;;;;;;;;;;2074474;28;20033;-75
2023/10/15 06:07:20;;;;;;;9.32;7.10;;;;;;;;;;2066063;28;20030;-75
2023/10/15 06:08:41;;;;;;;8.38;6.18;;;;;;;;;;2079467;28;20034;-74
2023/10/15 06:10:02;;;;;;;7.63;6.82;;;;;;;;;;2078324;28;20033;-74
2023/10/15 06:11:23;;;;;;;8.05;7.25;;;;;;;;;;2065005;28;20045;-74
2023/10/15 06:12:44;;;;;;;9.13;6.43;;;;;;;;;;2072731;28;20026;-74
2023/10/15 06:14:05;;;;;;;9.40;7.57;;;;;;;;;;2073014;28;20036;-74
2023/10/15 06:15:28;;;;;;;8.15;6.25;;;;;;;;;;2071063;28;20120;-75
2023/10/15 06:16:52;;;;;;;9.60;6.50;;;;;;;;;;2073206;28;20129;-74
2023/10/15 06:18:13;;;;;;;8.25;6.97;;;;;;;;;;2073185;28;20053;-75
2023/10/15 06:19:34;;;;;;;7.32;6.40;;;;;;;;;;2073061;28;20034;-74
2023/10/15 06:20:55;;;;;;;8.63;6.28;;;;;;;;;;2085036;28;20420;-74
2023/10/15 06:22:16;;;;;;;7.93;6.95;;;;;;;;;;2071689;28;20039;-74
2023/10/15 06:23:37;;;;;;;7.13;6.50;;;;;;;;;;2072079;28;20109;-75
2023/10/15 06:24:58;;;;;;;6.93;6.32;;;;;;;;;;2074071;28;20018;-74
2023/10/15 06:26:19;;;;;;;6.20;5.70;;;;;;;;;;2069854;28;20034;-75
2023/10/15 06:27:40;;;;;;;9.02;7.03;;;;;;;;;;2075979;28;20421;-74
2023/10/15 06:29:01;;;;;;;6.90;6.18;;;;;;;;;;2082721;28;20087;-74
2023/10/15 06:30:22;;;;;;;9.45;7.22;;;;;;;;;;2089334;28;20029;-74
2023/10/15 06:31:42;;;;;;;10.35;7.85;;;;;;;;;;2076523;28;20046;-74
2023/10/15 06:33:03;;;;;;;9.93;7.07;;;;;;;;;;2073599;28;20492;-74
2023/10/15 06:34:24;;;;;;;10.85;6.20;;;;;;;;;;2074955;28;20080;-75
2023/10/15 06:35:51;;;;;;;8.00;7.32;;;;;;;;;;2073377;28;20037;-74
2023/10/15 06:37:12;;;;;;;8.70;7.72;;;;;;;;;;2079436;28;20433;-74
2023/10/15 06:38:33;;;;;;;9.43;7.35;;;;;;;;;;2074085;28;20096;-74
2023/10/15 06:39:54;;;;;;;8.52;6.75;;;;;;;;;;2076016;28;20026;-74
2023/10/15 06:41:15;;;;;;;9.50;7.10;;;;;;;;;;2072645;28;20096;-75
2023/10/15 06:42:35;;;;;;;7.95;7.15;;;;;;;;;;2078716;28;20079;-74
2023/10/15 06:43:57;;;;;;;7.80;7.00;;;;;;;;;;2084272;28;20032;-75
2023/10/15 06:45:19;;;;;;;9.98;7.57;;;;;;;;;;2083619;28;20091;-74
2023/10/15 06:46:39;;;;;;;8.75;6.30;;;;;;;;;;2081318;28;20666;-74
2023/10/15 06:48:01;;;;;;;7.22;6.45;;;;;;;;;;2086182;28;20333;-74
2023/10/15 06:49:22;;;;;;;8.23;7.53;;;;;;;;;;2082632;28;20041;-75
2023/10/15 06:50:43;;;;;;;7.35;6.65;;;;;;;;;;2081470;28;20284;-74
2023/10/15 06:52:04;;;;;;;9.23;7.32;;;;;;;;;;2082000;28;20037;-74
2023/10/15 06:53:25;;;;;;;7.25;6.50;;;;;;;;;;2086384;28;20021;-74
2023/10/15 06:54:45;;;;;;;11.68;7.30;;;;;;;;;;2082708;28;20468;-74
2023/10/15 06:56:06;;;;;;;7.75;6.75;;;;;;;;;;2081023;28;20041;-75
2023/10/15 06:57:27;;;;;;;8.63;6.45;;;;;;;;;;2081673;28;20109;-74
2023/10/15 06:58:48;;;;;;;7.88;6.65;;;;;;;;;;2083754;28;20040;-75
2023/10/15 07:00:10;;;;;;;10.52;7.43;;;;;;;;;;2081960;28;20041;-75
2023/10/15 07:01:31;;;;;;;7.55;6.60;;;;;;;;;;2081692;28;20297;-75
2023/10/15 07:02:52;;;;;;;9.05;6.45;;;;;;;;;;2082412;28;20029;-75
2023/10/15 07:04:13;;;;;;;8.55;6.97;;;;;;;;;;2084611;28;20029;-74
2023/10/15 07:05:36;;;;;;;7.18;6.47;;;;;;;;;;2083134;28;20079;-74
2023/10/15 07:06:57;;;;;;;10.82;6.93;;;;;;;;;;2082890;28;20037;-75
2023/10/15 07:08:17;;;;;;;7.50;6.72;;;;;;;;;;2082957;28;20083;-75
2023/10/15 07:09:40;;;;;;;9.07;6.28;;;;;;;;;;2090121;28;20384;-75
2023/10/15 07:11:01;;;;;;;9.98;7.07;;;;;;;;;;2082507;28;20037;-74
2023/10/15 07:12:22;;;;;;;9.13;7.25;;;;;;;;;;2079005;28;20034;-74
2023/10/15 07:13:43;;;;;;;7.45;6.65;;;;;;;;;;2081556;28;20512;-74
2023/10/15 07:15:05;;;;;;;8.43;6.47;;;;;;;;;;2082880;28;21132;-75
2023/10/15 07:16:26;;;;;;;10.57;7.30;;;;;;;;;;2087817;28;20029;-75
2023/10/15 07:17:49;;;;;;;8.57;6.32;;;;;;;;;;2083416;28;20037;-75
2023/10/15 07:19:10;;;;;;;7.13;6.22;;;;;;;;;;2083024;28;20480;-75
2023/10/15 07:20:31;;;;;;;6.78;6.00;;;;;;;;;;2073506;28;20091;-75
2023/10/15 07:21:52;;;;;;;8.70;7.10;;;;;;;;;;2070720;28;20056;-75
2023/10/15 07:23:13;;;;;;;8.50;6.57;;;;;;;;;;2074274;28;20103;-74
2023/10/15 07:24:34;;;;;;;10.77;6.18;;;;;;;;;;2078043;28;20037;-74
2023/10/15 07:25:55;;;;;;;8.80;7.13;;;;;;;;;;2073699;28;20026;-75
2023/10/15 07:27:16;;;;;;;11.43;7.07;;;;;;;;;;2076263;28;20025;-75
2023/10/15 07:28:36;;;;;;;8.02;7.22;;;;;;;;;;2073969;28;20041;-74
2023/10/15 07:29:57;;;;;;;6.63;5.97;;;;;;;;;;2080110;28;20047;-75
2023/10/15 07:31:19;;;;;;;8.82;7.18;;;;;;;;;;2085164;28;20495;-75
2023/10/15 07:32:41;;;;;;;8.80;7.32;;;;;;;;;;2084973;28;20480;-73
2023/10/15 07:34:02;;;;;;;12.90;7.80;;;;;;;;;;2092520;28;20033;-73
2023/10/15 07:35:25;;;;;;;10.47;7.43;;;;;;;;;;2086776;28;20075;-73
2023/10/15 07:36:46;;;;;;;10.27;6.22;;;;;;;;;;2079236;28;20817;-75
2023/10/15 07:38:07;;;;;;;7.32;6.70;;;;;;;;;;2073590;28;20033;-73
2023/10/15 07:39:28;;;;;;;9.50;7.23;;;;;;;;;;2085444;28;20033;-75
2023/10/15 07:40:49;;;;;;;14.55;8.10;;;;;;;;;;2082988;28;20794;-73
2023/10/15 07:42:10;;;;;;;7.88;6.90;;;;;;;;;;2083154;28;20071;-73
2023/10/15 07:43:31;;;;;;;9.38;6.95;;;;;;;;;;2083978;28;20037;-74
2023/10/15 07:44:52;;;;;;;7.82;6.43;;;;;;;;;;2092173;28;20412;-74
2023/10/15 07:46:13;;;;;;;7.80;6.45;;;;;;;;;;2085772;28;20049;-74
2023/10/15 07:47:37;;;;;;;8.50;6.68;;;;;;;;;;2092159;28;20063;-75
2023/10/15 07:48:58;;;;;;;8.73;7.22;;;;;;;;;;2086546;28;20032;-76
2023/10/15 07:50:23;;;;;;;8.45;7.18;;;;;;;;;;2091086;28;20033;-75
2023/10/15 07:51:44;;;;;;;10.90;7.07;;;;;;;;;;2078764;28;20116;-76
2023/10/15 07:53:05;;;;;;;7.45;6.15;;;;;;;;;;2073446;28;20421;-74
2023/10/15 07:54:25;;;;;;;10.73;7.13;;;;;;;;;;2073356;28;20041;-75
2023/10/15 07:55:46;;;;;;;9.40;6.32;;;;;;;;;;2075444;28;20037;-74
2023/10/15 07:57:10;;;;;;;11.80;6.35;;;;;;;;;;2071883;28;20022;-74
2023/10/15 07:58:31;;;;;;;9.07;6.72;;;;;;;;;;2073710;28;20038;-74
2023/10/15 07:59:57;;;;;;;7.82;5.68;;;;;;;;;;2072372;28;20042;-73
2023/10/15 08:01:18;;;;;;;10.80;7.05;;;;;;;;;;2074318;28;20057;-74
2023/10/15 08:02:41;;;;;;;7.65;6.72;;;;;;;;;;2074605;28;20030;-74
2023/10/15 08:04:03;;;;;;;8.32;6.57;;;;;;;;;;2075624;28;20021;-74
2023/10/15 08:05:26;;;;;;;8.05;6.60;;;;;;;;;;2072678;28;20088;-74
2023/10/15 08:06:47;;;;;;;10.45;6.80;;;;;;;;;;2075604;28;20034;-74
2023/10/15 08:08:08;;;;;;;10.77;6.63;;;;;;;;;;2066177;28;20779;-74
2023/10/15 08:09:29;;;;;;;9.48;6.18;;;;;;;;;;2068864;28;20421;-74
2023/10/15 08:10:51;;;;;;;7.60;6.30;;;;;;;;;;2082464;28;20389;-74
2023/10/15 08:12:12;;;;;;;9.77;6.55;;;;;;;;;;2083041;28;20045;-74
2023/10/15 08:13:33;;;;;;;9.52;7.10;;;;;;;;;;2082095;28;20029;-74
2023/10/15 08:14:55;;;;;;;9.55;6.72;;;;;;;;;;2081336;28;20025;-74
2023/10/15 08:16:18;;;;;;;6.90;6.10;;;;;;;;;;2085499;28;20059;-74
2023/10/15 08:17:39;;;;;;;7.28;6.57;;;;;;;;;;2081680;28;20528;-74
2023/10/15 08:18:59;;;;;;;9.25;6.10;;;;;;;;;;2082905;28;20036;-74
2023/10/15 08:20:20;;;;;;;7.80;6.30;;;;;;;;;;2090453;28;20181;-76
2023/10/15 08:21:41;;;;;;;6.97;5.97;;;;;;;;;;2085406;28;20048;-75
2023/10/15 08:23:02;;;;;;;8.95;5.75;;;;;;;;;;2092598;28;20061;-76
2023/10/15 08:24:23;;;;;;;7.60;6.55;;;;;;;;;;2081397;28;20029;-76
2023/10/15 08:25:45;;;;;;;7.43;6.53;;;;;;;;;;2087073;28;20037;-73
2023/10/15 08:27:06;;;;;;;9.52;6.32;;;;;;;;;;2084086;28;20033;-76